sensor_id;sensor_type;location;lat;lon;timestamp;P1;durP1;ratioP1;P2;durP2;ratioP2
6135;SDS011;24008;42.664;23.372;2023-06-10T00:00:47;18.07;;;12.43;;
6135;SDS011;24008;42.664;23.372;2023-06-10T00:03:13;17.03;;;12.50;;
6135;SDS011;24008;42.664;23.372;2023-06-10T00:05:40;21.50;;;12.47;;
6135;SDS011;24008;42.664;23.372;2023-06-10T00:08:07;13.73;;;11.13;;
6135;SDS011;24008;42.664;23.372;2023-06-10T00:10:36;18.07;;;12.40;;
6135;SDS011;24008;42.664;23.372;2023-06-10T00:13:03;18.30;;;12.97;;
6135;SDS011;24008;42.664;23.372;2023-06-10T00:15:34;19.00;;;13.13;;
6135;SDS011;24008;42.664;23.372;2023-06-10T00:18:01;16.27;;;12.40;;
6135;SDS011;24008;42.664;23.372;2023-06-10T00:20:28;17.43;;;12.27;;
6135;SDS011;24008;42.664;23.372;2023-06-10T00:22:55;18.43;;;12.47;;
6135;SDS011;24008;42.664;23.372;2023-06-10T00:25:24;16.60;;;13.30;;
6135;SDS011;24008;42.664;23.372;2023-06-10T00:27:52;18.10;;;13.10;;
6135;SDS011;24008;42.664;23.372;2023-06-10T00:30:18;16.63;;;12.43;;
6135;SDS011;24008;42.664;23.372;2023-06-10T00:32:47;14.83;;;13.20;;
6135;SDS011;24008;42.664;23.372;2023-06-10T00:35:14;15.77;;;12.73;;
6135;SDS011;24008;42.664;23.372;2023-06-10T00:37:41;19.03;;;12.73;;
6135;SDS011;24008;42.664;23.372;2023-06-10T00:40:08;19.40;;;12.93;;
6135;SDS011;24008;42.664;23.372;2023-06-10T00:42:36;16.80;;;13.27;;
6135;SDS011;24008;42.664;23.372;2023-06-10T00:45:03;17.93;;;14.00;;
6135;SDS011;24008;42.664;23.372;2023-06-10T00:47:30;16.87;;;13.70;;
6135;SDS011;24008;42.664;23.372;2023-06-10T00:49:59;17.47;;;13.43;;
6135;SDS011;24008;42.664;23.372;2023-06-10T00:52:27;21.67;;;14.60;;
6135;SDS011;24008;42.664;23.372;2023-06-10T00:54:55;18.17;;;14.07;;
6135;SDS011;24008;42.664;23.372;2023-06-10T00:57:22;17.27;;;14.00;;
6135;SDS011;24008;42.664;23.372;2023-06-10T00:59:49;17.97;;;14.93;;
6135;SDS011;24008;42.664;23.372;2023-06-10T01:02:16;17.63;;;14.70;;
6135;SDS011;24008;42.664;23.372;2023-06-10T01:04:43;21.00;;;15.77;;
6135;SDS011;24008;42.664;23.372;2023-06-10T01:07:12;21.20;;;15.67;;
6135;SDS011;24008;42.664;23.372;2023-06-10T01:09:57;21.70;;;16.63;;
6135;SDS011;24008;42.664;23.372;2023-06-10T01:12:30;18.27;;;14.80;;
6135;SDS011;24008;42.664;23.372;2023-06-10T01:15:02;20.90;;;16.00;;
6135;SDS011;24008;42.664;23.372;2023-06-10T01:17:30;20.07;;;15.27;;
6135;SDS011;24008;42.664;23.372;2023-06-10T01:19:57;21.37;;;16.30;;
6135;SDS011;24008;42.664;23.372;2023-06-10T01:22:26;19.37;;;15.93;;
6135;SDS011;24008;42.664;23.372;2023-06-10T01:24:57;19.83;;;15.60;;
6135;SDS011;24008;42.664;23.372;2023-06-10T01:27:25;21.57;;;15.90;;
6135;SDS011;24008;42.664;23.372;2023-06-10T01:29:58;20.63;;;16.53;;
6135;SDS011;24008;42.664;23.372;2023-06-10T01:32:32;23.97;;;16.43;;
6135;SDS011;24008;42.664;23.372;2023-06-10T01:35:01;21.47;;;16.73;;
6135;SDS011;24008;42.664;23.372;2023-06-10T01:37:30;22.87;;;16.77;;
6135;SDS011;24008;42.664;23.372;2023-06-10T01:39:58;23.93;;;17.30;;
6135;SDS011;24008;42.664;23.372;2023-06-10T01:42:26;20.03;;;16.73;;
6135;SDS011;24008;42.664;23.372;2023-06-10T01:44:54;24.80;;;17.63;;
6135;SDS011;24008;42.664;23.372;2023-06-10T01:47:21;25.43;;;16.87;;
6135;SDS011;24008;42.664;23.372;2023-06-10T01:49:48;26.17;;;17.63;;
6135;SDS011;24008;42.664;23.372;2023-06-10T01:52:15;24.53;;;17.97;;
6135;SDS011;24008;42.664;23.372;2023-06-10T01:54:43;26.40;;;17.67;;
6135;SDS011;24008;42.664;23.372;2023-06-10T01:57:10;29.73;;;18.03;;
6135;SDS011;24008;42.664;23.372;2023-06-10T01:59:37;26.60;;;17.57;;
6135;SDS011;24008;42.664;23.372;2023-06-10T02:02:04;28.80;;;18.77;;
6135;SDS011;24008;42.664;23.372;2023-06-10T02:04:31;25.10;;;18.43;;
6135;SDS011;24008;42.664;23.372;2023-06-10T02:06:58;22.30;;;17.17;;
6135;SDS011;24008;42.664;23.372;2023-06-10T02:09:28;23.47;;;18.27;;
6135;SDS011;24008;42.664;23.372;2023-06-10T02:11:57;26.47;;;18.03;;
6135;SDS011;24008;42.664;23.372;2023-06-10T02:14:23;22.87;;;16.97;;
6135;SDS011;24008;42.664;23.372;2023-06-10T02:16:50;24.43;;;18.10;;
6135;SDS011;24008;42.664;23.372;2023-06-10T02:19:21;22.30;;;17.50;;
6135;SDS011;24008;42.664;23.372;2023-06-10T02:21:48;22.50;;;17.57;;
6135;SDS011;24008;42.664;23.372;2023-06-10T02:24:15;20.70;;;16.37;;
6135;SDS011;24008;42.664;23.372;2023-06-10T02:26:42;23.47;;;17.47;;
6135;SDS011;24008;42.664;23.372;2023-06-10T02:29:10;20.03;;;16.17;;
6135;SDS011;24008;42.664;23.372;2023-06-10T02:31:37;20.77;;;16.60;;
6135;SDS011;24008;42.664;23.372;2023-06-10T02:34:04;23.93;;;16.33;;
6135;SDS011;24008;42.664;23.372;2023-06-10T02:36:31;20.93;;;16.37;;
6135;SDS011;24008;42.664;23.372;2023-06-10T02:39:00;20.53;;;16.03;;
6135;SDS011;24008;42.664;23.372;2023-06-10T02:41:28;19.97;;;15.80;;
6135;SDS011;24008;42.664;23.372;2023-06-10T02:43:54;21.47;;;16.20;;
6135;SDS011;24008;42.664;23.372;2023-06-10T02:46:22;24.77;;;16.17;;
6135;SDS011;24008;42.664;23.372;2023-06-10T02:48:49;21.40;;;16.47;;
6135;SDS011;24008;42.664;23.372;2023-06-10T02:51:17;21.23;;;16.27;;
6135;SDS011;24008;42.664;23.372;2023-06-10T02:53:43;19.87;;;16.20;;
6135;SDS011;24008;42.664;23.372;2023-06-10T02:56:10;20.03;;;16.27;;
6135;SDS011;24008;42.664;23.372;2023-06-10T02:58:37;19.53;;;16.07;;
6135;SDS011;24008;42.664;23.372;2023-06-10T03:01:04;22.77;;;15.93;;
6135;SDS011;24008;42.664;23.372;2023-06-10T03:03:32;20.70;;;16.27;;
6135;SDS011;24008;42.664;23.372;2023-06-10T03:06:00;22.50;;;16.37;;
6135;SDS011;24008;42.664;23.372;2023-06-10T03:08:27;22.93;;;16.23;;
6135;SDS011;24008;42.664;23.372;2023-06-10T03:10:54;19.87;;;15.73;;
6135;SDS011;24008;42.664;23.372;2023-06-10T03:13:21;21.97;;;16.57;;
6135;SDS011;24008;42.664;23.372;2023-06-10T03:15:48;20.27;;;15.40;;
6135;SDS011;24008;42.664;23.372;2023-06-10T03:18:15;21.03;;;15.83;;
6135;SDS011;24008;42.664;23.372;2023-06-10T03:20:43;20.97;;;16.03;;
6135;SDS011;24008;42.664;23.372;2023-06-10T03:23:10;21.70;;;15.43;;
6135;SDS011;24008;42.664;23.372;2023-06-10T03:25:38;19.40;;;15.40;;
6135;SDS011;24008;42.664;23.372;2023-06-10T03:28:05;20.33;;;15.83;;
6135;SDS011;24008;42.664;23.372;2023-06-10T03:30:32;23.57;;;15.57;;
6135;SDS011;24008;42.664;23.372;2023-06-10T03:32:59;19.97;;;15.40;;
6135;SDS011;24008;42.664;23.372;2023-06-10T03:35:26;24.67;;;16.23;;
6135;SDS011;24008;42.664;23.372;2023-06-10T03:37:54;17.50;;;15.07;;
6135;SDS011;24008;42.664;23.372;2023-06-10T03:40:21;20.30;;;16.23;;
6135;SDS011;24008;42.664;23.372;2023-06-10T03:42:47;25.23;;;17.67;;
6135;SDS011;24008;42.664;23.372;2023-06-10T03:45:14;24.67;;;17.17;;
6135;SDS011;24008;42.664;23.372;2023-06-10T03:47:41;18.90;;;15.90;;
6135;SDS011;24008;42.664;23.372;2023-06-10T03:50:08;22.00;;;16.53;;
6135;SDS011;24008;42.664;23.372;2023-06-10T03:52:37;21.87;;;16.27;;
6135;SDS011;24008;42.664;23.372;2023-06-10T03:55:06;19.97;;;16.17;;
6135;SDS011;24008;42.664;23.372;2023-06-10T03:57:33;22.93;;;17.50;;
6135;SDS011;24008;42.664;23.372;2023-06-10T04:00:00;18.83;;;16.10;;
6135;SDS011;24008;42.664;23.372;2023-06-10T04:02:31;21.47;;;15.87;;
6135;SDS011;24008;42.664;23.372;2023-06-10T04:04:59;22.77;;;16.63;;
6135;SDS011;24008;42.664;23.372;2023-06-10T04:07:27;21.60;;;16.23;;
6135;SDS011;24008;42.664;23.372;2023-06-10T04:09:53;21.37;;;15.73;;
6135;SDS011;24008;42.664;23.372;2023-06-10T04:12:22;23.87;;;15.67;;
6135;SDS011;24008;42.664;23.372;2023-06-10T04:14:48;17.70;;;14.30;;
6135;SDS011;24008;42.664;23.372;2023-06-10T04:17:16;19.90;;;15.00;;
6135;SDS011;24008;42.664;23.372;2023-06-10T04:19:43;17.67;;;13.73;;
6135;SDS011;24008;42.664;23.372;2023-06-10T04:22:10;20.30;;;14.23;;
6135;SDS011;24008;42.664;23.372;2023-06-10T04:24:37;19.47;;;14.93;;
6135;SDS011;24008;42.664;23.372;2023-06-10T04:27:04;20.33;;;15.90;;
6135;SDS011;24008;42.664;23.372;2023-06-10T04:29:33;21.83;;;15.23;;
6135;SDS011;24008;42.664;23.372;2023-06-10T04:32:00;18.03;;;15.07;;
6135;SDS011;24008;42.664;23.372;2023-06-10T04:34:27;22.33;;;15.13;;
6135;SDS011;24008;42.664;23.372;2023-06-10T04:36:53;22.37;;;15.77;;
6135;SDS011;24008;42.664;23.372;2023-06-10T04:39:21;18.07;;;14.87;;
6135;SDS011;24008;42.664;23.372;2023-06-10T04:41:48;20.27;;;14.37;;
6135;SDS011;24008;42.664;23.372;2023-06-10T04:44:15;19.77;;;14.80;;
6135;SDS011;24008;42.664;23.372;2023-06-10T04:46:43;19.17;;;13.67;;
6135;SDS011;24008;42.664;23.372;2023-06-10T04:49:10;17.37;;;12.97;;
6135;SDS011;24008;42.664;23.372;2023-06-10T04:51:39;17.60;;;12.73;;
6135;SDS011;24008;42.664;23.372;2023-06-10T04:54:06;16.57;;;12.37;;
6135;SDS011;24008;42.664;23.372;2023-06-10T04:56:33;16.17;;;13.70;;
6135;SDS011;24008;42.664;23.372;2023-06-10T04:59:00;17.23;;;13.73;;
6135;SDS011;24008;42.664;23.372;2023-06-10T05:01:27;16.20;;;13.20;;
6135;SDS011;24008;42.664;23.372;2023-06-10T05:03:55;16.50;;;13.63;;
6135;SDS011;24008;42.664;23.372;2023-06-10T05:06:22;20.47;;;15.73;;
6135;SDS011;24008;42.664;23.372;2023-06-10T05:08:48;21.43;;;17.13;;
6135;SDS011;24008;42.664;23.372;2023-06-10T05:11:15;19.60;;;16.17;;
6135;SDS011;24008;42.664;23.372;2023-06-10T05:13:42;20.83;;;16.03;;
6135;SDS011;24008;42.664;23.372;2023-06-10T05:16:09;24.00;;;17.73;;
6135;SDS011;24008;42.664;23.372;2023-06-10T05:18:36;22.43;;;17.40;;
6135;SDS011;24008;42.664;23.372;2023-06-10T05:21:04;19.40;;;16.77;;
6135;SDS011;24008;42.664;23.372;2023-06-10T05:23:31;20.90;;;17.27;;
6135;SDS011;24008;42.664;23.372;2023-06-10T05:25:58;23.73;;;17.00;;
6135;SDS011;24008;42.664;23.372;2023-06-10T05:28:25;23.20;;;16.93;;
6135;SDS011;24008;42.664;23.372;2023-06-10T05:30:51;22.77;;;16.83;;
6135;SDS011;24008;42.664;23.372;2023-06-10T05:33:18;21.70;;;16.33;;
6135;SDS011;24008;42.664;23.372;2023-06-10T05:35:45;21.27;;;15.87;;
6135;SDS011;24008;42.664;23.372;2023-06-10T05:38:13;20.57;;;16.13;;
6135;SDS011;24008;42.664;23.372;2023-06-10T05:40:40;20.43;;;16.43;;
6135;SDS011;24008;42.664;23.372;2023-06-10T05:43:07;21.53;;;16.67;;
6135;SDS011;24008;42.664;23.372;2023-06-10T05:45:34;23.37;;;16.87;;
6135;SDS011;24008;42.664;23.372;2023-06-10T05:48:21;25.83;;;17.80;;
6135;SDS011;24008;42.664;23.372;2023-06-10T05:50:48;23.50;;;18.23;;
6135;SDS011;24008;42.664;23.372;2023-06-10T05:53:16;24.50;;;18.73;;
6135;SDS011;24008;42.664;23.372;2023-06-10T05:55:43;21.70;;;18.07;;
6135;SDS011;24008;42.664;23.372;2023-06-10T05:58:10;23.80;;;17.93;;
6135;SDS011;24008;42.664;23.372;2023-06-10T06:00:37;24.13;;;17.70;;
6135;SDS011;24008;42.664;23.372;2023-06-10T06:03:06;23.13;;;18.37;;
6135;SDS011;24008;42.664;23.372;2023-06-10T06:05:33;24.50;;;18.20;;
6135;SDS011;24008;42.664;23.372;2023-06-10T06:08:00;24.40;;;18.30;;
6135;SDS011;24008;42.664;23.372;2023-06-10T06:10:29;24.40;;;17.07;;
6135;SDS011;24008;42.664;23.372;2023-06-10T06:12:56;23.80;;;17.73;;
6135;SDS011;24008;42.664;23.372;2023-06-10T06:15:23;23.63;;;17.47;;
6135;SDS011;24008;42.664;23.372;2023-06-10T06:17:50;22.13;;;17.53;;
6135;SDS011;24008;42.664;23.372;2023-06-10T06:20:17;28.27;;;18.77;;
6135;SDS011;24008;42.664;23.372;2023-06-10T06:22:44;20.70;;;17.60;;
6135;SDS011;24008;42.664;23.372;2023-06-10T06:25:11;25.90;;;17.97;;
6135;SDS011;24008;42.664;23.372;2023-06-10T06:27:40;21.87;;;17.37;;
6135;SDS011;24008;42.664;23.372;2023-06-10T06:30:07;20.33;;;16.70;;
6135;SDS011;24008;42.664;23.372;2023-06-10T06:32:34;21.90;;;16.50;;
6135;SDS011;24008;42.664;23.372;2023-06-10T06:35:01;18.83;;;15.13;;
6135;SDS011;24008;42.664;23.372;2023-06-10T06:37:28;20.73;;;15.87;;
6135;SDS011;24008;42.664;23.372;2023-06-10T06:39:54;23.73;;;15.67;;
6135;SDS011;24008;42.664;23.372;2023-06-10T06:42:21;19.23;;;15.05;;
6135;SDS011;24008;42.664;23.372;2023-06-10T06:44:49;18.88;;;13.82;;
6135;SDS011;24008;42.664;23.372;2023-06-10T06:47:16;16.40;;;12.13;;
6135;SDS011;24008;42.664;23.372;2023-06-10T06:49:44;15.20;;;12.80;;
6135;SDS011;24008;42.664;23.372;2023-06-10T06:52:11;14.48;;;11.65;;
6135;SDS011;24008;42.664;23.372;2023-06-10T06:54:38;15.30;;;11.73;;
6135;SDS011;24008;42.664;23.372;2023-06-10T06:57:05;14.40;;;12.25;;
6135;SDS011;24008;42.664;23.372;2023-06-10T06:59:33;17.95;;;11.68;;
6135;SDS011;24008;42.664;23.372;2023-06-10T07:02:01;17.60;;;12.55;;
6135;SDS011;24008;42.664;23.372;2023-06-10T07:04:28;17.45;;;11.35;;
6135;SDS011;24008;42.664;23.372;2023-06-10T07:06:55;17.50;;;11.10;;
6135;SDS011;24008;42.664;23.372;2023-06-10T07:09:22;14.07;;;11.57;;
6135;SDS011;24008;42.664;23.372;2023-06-10T07:11:49;13.05;;;11.23;;
6135;SDS011;24008;42.664;23.372;2023-06-10T07:14:16;13.30;;;11.43;;
6135;SDS011;24008;42.664;23.372;2023-06-10T07:16:43;13.63;;;10.50;;
6135;SDS011;24008;42.664;23.372;2023-06-10T07:19:11;12.38;;;10.13;;
6135;SDS011;24008;42.664;23.372;2023-06-10T07:21:38;11.73;;;10.20;;
6135;SDS011;24008;42.664;23.372;2023-06-10T07:24:05;15.25;;;10.70;;
6135;SDS011;24008;42.664;23.372;2023-06-10T07:26:32;11.93;;;9.73;;
6135;SDS011;24008;42.664;23.372;2023-06-10T07:28:59;14.57;;;10.63;;
6135;SDS011;24008;42.664;23.372;2023-06-10T07:31:26;13.18;;;10.25;;
6135;SDS011;24008;42.664;23.372;2023-06-10T07:33:53;12.75;;;9.43;;
6135;SDS011;24008;42.664;23.372;2023-06-10T07:36:21;11.60;;;9.20;;
6135;SDS011;24008;42.664;23.372;2023-06-10T07:38:48;13.30;;;8.75;;
6135;SDS011;24008;42.664;23.372;2023-06-10T07:41:14;9.40;;;7.78;;
6135;SDS011;24008;42.664;23.372;2023-06-10T07:43:43;12.38;;;8.23;;
6135;SDS011;24008;42.664;23.372;2023-06-10T07:46:09;11.27;;;7.85;;
6135;SDS011;24008;42.664;23.372;2023-06-10T07:48:36;10.88;;;7.88;;
6135;SDS011;24008;42.664;23.372;2023-06-10T07:51:03;10.88;;;7.82;;
6135;SDS011;24008;42.664;23.372;2023-06-10T07:53:31;10.40;;;7.53;;
6135;SDS011;24008;42.664;23.372;2023-06-10T07:55:58;8.60;;;7.70;;
6135;SDS011;24008;42.664;23.372;2023-06-10T07:58:25;8.30;;;7.45;;
6135;SDS011;24008;42.664;23.372;2023-06-10T08:00:51;8.98;;;6.97;;
6135;SDS011;24008;42.664;23.372;2023-06-10T08:03:20;9.18;;;6.40;;
6135;SDS011;24008;42.664;23.372;2023-06-10T08:05:47;9.50;;;6.40;;
6135;SDS011;24008;42.664;23.372;2023-06-10T08:08:14;8.77;;;6.70;;
6135;SDS011;24008;42.664;23.372;2023-06-10T08:10:42;11.95;;;7.40;;
6135;SDS011;24008;42.664;23.372;2023-06-10T08:13:09;12.32;;;6.82;;
6135;SDS011;24008;42.664;23.372;2023-06-10T08:15:36;10.93;;;6.80;;
6135;SDS011;24008;42.664;23.372;2023-06-10T08:18:02;9.60;;;6.72;;
6135;SDS011;24008;42.664;23.372;2023-06-10T08:20:29;9.52;;;5.75;;
6135;SDS011;24008;42.664;23.372;2023-06-10T08:22:57;5.82;;;5.03;;
6135;SDS011;24008;42.664;23.372;2023-06-10T08:25:24;9.57;;;5.15;;
6135;SDS011;24008;42.664;23.372;2023-06-10T08:28:12;6.72;;;5.60;;
6135;SDS011;24008;42.664;23.372;2023-06-10T08:30:39;6.93;;;5.00;;
6135;SDS011;24008;42.664;23.372;2023-06-10T08:33:06;8.15;;;5.15;;
6135;SDS011;24008;42.664;23.372;2023-06-10T08:35:33;7.00;;;4.93;;
6135;SDS011;24008;42.664;23.372;2023-06-10T08:38:00;6.03;;;4.47;;
6135;SDS011;24008;42.664;23.372;2023-06-10T08:40:26;7.72;;;4.50;;
6135;SDS011;24008;42.664;23.372;2023-06-10T08:42:57;5.28;;;4.35;;
6135;SDS011;24008;42.664;23.372;2023-06-10T08:45:34;4.60;;;4.20;;
6135;SDS011;24008;42.664;23.372;2023-06-10T08:48:02;5.28;;;4.80;;
6135;SDS011;24008;42.664;23.372;2023-06-10T08:50:31;4.93;;;4.43;;
6135;SDS011;24008;42.664;23.372;2023-06-10T08:53:00;8.45;;;4.47;;
6135;SDS011;24008;42.664;23.372;2023-06-10T08:55:31;5.25;;;4.30;;
6135;SDS011;24008;42.664;23.372;2023-06-10T08:57:59;6.13;;;4.53;;
6135;SDS011;24008;42.664;23.372;2023-06-10T09:00:26;6.47;;;4.18;;
6135;SDS011;24008;42.664;23.372;2023-06-10T09:02:55;5.25;;;4.30;;
6135;SDS011;24008;42.664;23.372;2023-06-10T09:05:22;5.72;;;4.18;;
6135;SDS011;24008;42.664;23.372;2023-06-10T09:07:49;5.22;;;3.67;;
6135;SDS011;24008;42.664;23.372;2023-06-10T09:10:19;5.13;;;3.40;;
6135;SDS011;24008;42.664;23.372;2023-06-10T09:12:46;3.70;;;3.40;;
6135;SDS011;24008;42.664;23.372;2023-06-10T09:15:13;4.03;;;3.50;;
6135;SDS011;24008;42.664;23.372;2023-06-10T09:17:42;4.15;;;3.75;;
6135;SDS011;24008;42.664;23.372;2023-06-10T09:20:11;5.97;;;5.20;;
6135;SDS011;24008;42.664;23.372;2023-06-10T09:22:38;4.30;;;3.83;;
6135;SDS011;24008;42.664;23.372;2023-06-10T09:25:05;5.25;;;4.65;;
6135;SDS011;24008;42.664;23.372;2023-06-10T09:27:40;4.30;;;3.90;;
6135;SDS011;24008;42.664;23.372;2023-06-10T09:30:23;6.32;;;3.80;;
6135;SDS011;24008;42.664;23.372;2023-06-10T09:32:51;4.65;;;3.80;;
6135;SDS011;24008;42.664;23.372;2023-06-10T09:35:22;5.53;;;4.55;;
6135;SDS011;24008;42.664;23.372;2023-06-10T09:37:50;6.15;;;4.28;;
6135;SDS011;24008;42.664;23.372;2023-06-10T09:40:18;5.18;;;4.10;;
6135;SDS011;24008;42.664;23.372;2023-06-10T09:43:03;6.45;;;5.25;;
6135;SDS011;24008;42.664;23.372;2023-06-10T09:45:30;5.28;;;3.70;;
6135;SDS011;24008;42.664;23.372;2023-06-10T09:47:58;4.63;;;3.85;;
6135;SDS011;24008;42.664;23.372;2023-06-10T09:50:26;5.50;;;3.80;;
6135;SDS011;24008;42.664;23.372;2023-06-10T09:52:53;6.18;;;3.38;;
6135;SDS011;24008;42.664;23.372;2023-06-10T09:55:20;5.30;;;3.45;;
6135;SDS011;24008;42.664;23.372;2023-06-10T09:57:49;4.72;;;3.20;;
6135;SDS011;24008;42.664;23.372;2023-06-10T10:00:16;5.47;;;3.50;;
6135;SDS011;24008;42.664;23.372;2023-06-10T10:02:44;4.35;;;3.20;;
6135;SDS011;24008;42.664;23.372;2023-06-10T10:05:13;3.47;;;3.17;;
6135;SDS011;24008;42.664;23.372;2023-06-10T10:07:42;4.47;;;4.00;;
6135;SDS011;24008;42.664;23.372;2023-06-10T10:10:09;5.38;;;3.78;;
6135;SDS011;24008;42.664;23.372;2023-06-10T10:12:37;4.32;;;3.15;;
6135;SDS011;24008;42.664;23.372;2023-06-10T10:15:05;3.25;;;2.95;;
6135;SDS011;24008;42.664;23.372;2023-06-10T10:17:34;3.83;;;3.22;;
6135;SDS011;24008;42.664;23.372;2023-06-10T10:20:05;3.35;;;3.05;;
6135;SDS011;24008;42.664;23.372;2023-06-10T10:22:35;4.78;;;3.95;;
6135;SDS011;24008;42.664;23.372;2023-06-10T10:25:07;7.97;;;4.10;;
6135;SDS011;24008;42.664;23.372;2023-06-10T10:27:40;4.57;;;3.97;;
6135;SDS011;24008;42.664;23.372;2023-06-10T10:30:11;5.63;;;4.28;;
6135;SDS011;24008;42.664;23.372;2023-06-10T10:32:40;10.48;;;5.10;;
6135;SDS011;24008;42.664;23.372;2023-06-10T10:35:14;5.70;;;4.28;;
6135;SDS011;24008;42.664;23.372;2023-06-10T10:37:43;8.95;;;5.80;;
6135;SDS011;24008;42.664;23.372;2023-06-10T10:40:13;6.80;;;4.60;;
6135;SDS011;24008;42.664;23.372;2023-06-10T10:42:40;4.88;;;4.13;;
6135;SDS011;24008;42.664;23.372;2023-06-10T10:45:08;6.78;;;4.60;;
6135;SDS011;24008;42.664;23.372;2023-06-10T10:47:36;4.80;;;4.40;;
6135;SDS011;24008;42.664;23.372;2023-06-10T10:50:12;5.30;;;4.80;;
6135;SDS011;24008;42.664;23.372;2023-06-10T10:52:51;5.97;;;4.63;;
6135;SDS011;24008;42.664;23.372;2023-06-10T10:55:21;6.40;;;4.70;;
6135;SDS011;24008;42.664;23.372;2023-06-10T10:57:55;5.32;;;4.60;;
6135;SDS011;24008;42.664;23.372;2023-06-10T11:00:29;8.93;;;5.35;;
6135;SDS011;24008;42.664;23.372;2023-06-10T11:02:58;8.00;;;5.45;;
6135;SDS011;24008;42.664;23.372;2023-06-10T11:05:36;6.65;;;4.88;;
6135;SDS011;24008;42.664;23.372;2023-06-10T11:08:04;7.32;;;4.45;;
6135;SDS011;24008;42.664;23.372;2023-06-10T11:10:35;7.25;;;5.03;;
6135;SDS011;24008;42.664;23.372;2023-06-10T11:13:06;5.28;;;4.78;;
6135;SDS011;24008;42.664;23.372;2023-06-10T11:15:37;7.05;;;5.03;;
6135;SDS011;24008;42.664;23.372;2023-06-10T11:18:13;5.20;;;4.70;;
6135;SDS011;24008;42.664;23.372;2023-06-10T11:23:33;5.28;;;4.38;;
6135;SDS011;24008;42.664;23.372;2023-06-10T11:29:03;8.38;;;5.28;;
6135;SDS011;24008;42.664;23.372;2023-06-10T11:31:48;10.15;;;5.40;;
6135;SDS011;24008;42.664;23.372;2023-06-10T11:34:23;8.63;;;7.22;;
6135;SDS011;24008;42.664;23.372;2023-06-10T11:36:52;6.60;;;5.30;;
6135;SDS011;24008;42.664;23.372;2023-06-10T11:39:20;5.63;;;5.00;;
6135;SDS011;24008;42.664;23.372;2023-06-10T11:41:49;6.93;;;4.90;;
6135;SDS011;24008;42.664;23.372;2023-06-10T11:44:17;5.28;;;4.50;;
6135;SDS011;24008;42.664;23.372;2023-06-10T11:46:45;5.70;;;5.20;;
6135;SDS011;24008;42.664;23.372;2023-06-10T11:49:14;5.25;;;4.35;;
6135;SDS011;24008;42.664;23.372;2023-06-10T11:51:41;6.70;;;5.13;;
6135;SDS011;24008;42.664;23.372;2023-06-10T11:54:14;7.10;;;5.30;;
6135;SDS011;24008;42.664;23.372;2023-06-10T11:56:42;7.43;;;5.03;;
6135;SDS011;24008;42.664;23.372;2023-06-10T11:59:10;7.05;;;4.72;;
6135;SDS011;24008;42.664;23.372;2023-06-10T12:01:37;7.53;;;5.13;;
6135;SDS011;24008;42.664;23.372;2023-06-10T12:04:08;6.57;;;4.72;;
6135;SDS011;24008;42.664;23.372;2023-06-10T12:06:40;5.03;;;4.53;;
6135;SDS011;24008;42.664;23.372;2023-06-10T12:09:13;6.07;;;5.53;;
6135;SDS011;24008;42.664;23.372;2023-06-10T12:11:41;8.00;;;5.18;;
6135;SDS011;24008;42.664;23.372;2023-06-10T12:14:11;7.55;;;5.65;;
6135;SDS011;24008;42.664;23.372;2023-06-10T12:16:37;5.05;;;4.55;;
6135;SDS011;24008;42.664;23.372;2023-06-10T12:19:04;8.73;;;4.70;;
6135;SDS011;24008;42.664;23.372;2023-06-10T12:21:32;6.72;;;5.50;;
6135;SDS011;24008;42.664;23.372;2023-06-10T12:24:04;5.90;;;4.40;;
6135;SDS011;24008;42.664;23.372;2023-06-10T12:26:39;6.07;;;4.63;;
6135;SDS011;24008;42.664;23.372;2023-06-10T12:29:16;5.75;;;3.92;;
6135;SDS011;24008;42.664;23.372;2023-06-10T12:31:52;4.55;;;4.15;;
6135;SDS011;24008;42.664;23.372;2023-06-10T12:34:29;5.03;;;4.50;;
6135;SDS011;24008;42.664;23.372;2023-06-10T12:36:57;6.25;;;3.88;;
6135;SDS011;24008;42.664;23.372;2023-06-10T12:39:23;6.65;;;4.20;;
6135;SDS011;24008;42.664;23.372;2023-06-10T12:41:51;6.15;;;4.03;;
6135;SDS011;24008;42.664;23.372;2023-06-10T12:44:23;5.45;;;3.95;;
6135;SDS011;24008;42.664;23.372;2023-06-10T12:46:56;5.38;;;4.50;;
6135;SDS011;24008;42.664;23.372;2023-06-10T12:49:22;4.40;;;4.00;;
6135;SDS011;24008;42.664;23.372;2023-06-10T12:51:50;4.30;;;3.90;;
6135;SDS011;24008;42.664;23.372;2023-06-10T12:54:17;5.63;;;4.35;;
6135;SDS011;24008;42.664;23.372;2023-06-10T12:56:44;5.22;;;3.60;;
6135;SDS011;24008;42.664;23.372;2023-06-10T12:59:10;4.65;;;4.18;;
6135;SDS011;24008;42.664;23.372;2023-06-10T13:01:38;4.30;;;3.90;;
6135;SDS011;24008;42.664;23.372;2023-06-10T13:04:05;5.97;;;3.90;;
6135;SDS011;24008;42.664;23.372;2023-06-10T13:06:32;5.68;;;4.13;;
6135;SDS011;24008;42.664;23.372;2023-06-10T13:09:02;5.82;;;4.20;;
6135;SDS011;24008;42.664;23.372;2023-06-10T13:11:31;5.38;;;3.97;;
6135;SDS011;24008;42.664;23.372;2023-06-10T13:13:58;6.30;;;4.07;;
6135;SDS011;24008;42.664;23.372;2023-06-10T13:16:27;5.43;;;3.78;;
6135;SDS011;24008;42.664;23.372;2023-06-10T13:18:56;4.47;;;4.07;;
6135;SDS011;24008;42.664;23.372;2023-06-10T13:21:44;6.22;;;3.97;;
6135;SDS011;24008;42.664;23.372;2023-06-10T13:24:11;6.30;;;4.00;;
6135;SDS011;24008;42.664;23.372;2023-06-10T13:26:38;5.03;;;4.40;;
6135;SDS011;24008;42.664;23.372;2023-06-10T13:29:06;5.00;;;3.85;;
6135;SDS011;24008;42.664;23.372;2023-06-10T13:31:39;5.85;;;4.30;;
6135;SDS011;24008;42.664;23.372;2023-06-10T13:34:09;11.18;;;4.55;;
6135;SDS011;24008;42.664;23.372;2023-06-10T13:36:36;6.50;;;4.60;;
6135;SDS011;24008;42.664;23.372;2023-06-10T13:39:03;7.38;;;4.90;;
6135;SDS011;24008;42.664;23.372;2023-06-10T13:41:30;12.98;;;5.18;;
6135;SDS011;24008;42.664;23.372;2023-06-10T13:43:57;14.02;;;5.75;;
6135;SDS011;24008;42.664;23.372;2023-06-10T13:46:24;10.02;;;4.88;;
6135;SDS011;24008;42.664;23.372;2023-06-10T13:48:51;9.95;;;5.22;;
6135;SDS011;24008;42.664;23.372;2023-06-10T13:51:19;7.20;;;5.32;;
6135;SDS011;24008;42.664;23.372;2023-06-10T13:53:46;9.25;;;5.15;;
6135;SDS011;24008;42.664;23.372;2023-06-10T13:56:13;7.90;;;4.88;;
6135;SDS011;24008;42.664;23.372;2023-06-10T13:58:40;7.88;;;5.15;;
6135;SDS011;24008;42.664;23.372;2023-06-10T14:01:08;8.13;;;5.70;;
6135;SDS011;24008;42.664;23.372;2023-06-10T14:03:34;8.65;;;5.75;;
6135;SDS011;24008;42.664;23.372;2023-06-10T14:06:01;7.30;;;5.18;;
6135;SDS011;24008;42.664;23.372;2023-06-10T14:08:30;7.65;;;5.80;;
6135;SDS011;24008;42.664;23.372;2023-06-10T14:10:57;9.73;;;5.85;;
6135;SDS011;24008;42.664;23.372;2023-06-10T14:13:23;9.30;;;5.93;;
6135;SDS011;24008;42.664;23.372;2023-06-10T14:15:50;6.72;;;4.97;;
6135;SDS011;24008;42.664;23.372;2023-06-10T14:18:17;10.13;;;5.40;;
6135;SDS011;24008;42.664;23.372;2023-06-10T14:20:44;7.80;;;5.25;;
6135;SDS011;24008;42.664;23.372;2023-06-10T14:23:11;5.88;;;5.25;;
6135;SDS011;24008;42.664;23.372;2023-06-10T14:25:39;6.57;;;5.05;;
6135;SDS011;24008;42.664;23.372;2023-06-10T14:28:06;6.65;;;5.10;;
6135;SDS011;24008;42.664;23.372;2023-06-10T14:30:32;6.47;;;5.88;;
6135;SDS011;24008;42.664;23.372;2023-06-10T14:32:59;6.30;;;5.45;;
6135;SDS011;24008;42.664;23.372;2023-06-10T14:35:26;6.13;;;4.90;;
6135;SDS011;24008;42.664;23.372;2023-06-10T14:37:53;5.78;;;4.78;;
6135;SDS011;24008;42.664;23.372;2023-06-10T14:40:20;7.18;;;5.18;;
6135;SDS011;24008;42.664;23.372;2023-06-10T14:42:50;6.18;;;4.78;;
6135;SDS011;24008;42.664;23.372;2023-06-10T14:45:17;5.97;;;5.05;;